Airport View

Enter AWOS ICAO identifier for current METAR.

ex. KFNL

KDLL 080530Z AUTO 18006KT 10SM CLR 19/15 A3007 RMK AO2 T01870152

8 Aug 2020 05:25

Frequency: 118.325

Phone: 608-356-1071

Other Area AWOS: KC35 - K82C - KLNR - KC29

TAF AMD KMSN 080305Z 0803/0824 15006KT P6SM SCT080 SCT200 FM081400 18010G20KT P6SM SCT040 BKN150 FM081900 20011G20KT P6SM BKN050 BKN120